• Join FlightAware (Why Join?)
  • Login
  • US Flag 
06:13PM EST


 

Airport Tracker/Info


-or-


 

Live Flight TrackerFlight Track Log ✈ N27XP ✈ 18-Jul-2014 ✈ KSOP - KIPJ

Flight Track Log - Related Links

Times and Time Zones

All times are in EDT time to prevent confusion due to time zone crossing. See the N27XP flight status page for this flight to view local times or setup timezone preferences in your user account.

Time Position Orientation Groundspeed Altitude Reporting Facility
EDT Latitude Longitude Course Direction KTS MPH feet Rate Location/Type
08:52AM 35.2906 -79.8056 283° West  Level FlightAware Approximate
08:53AM 35.3032 -79.8755 283° West  Level FlightAware Approximate
08:53AM 35.3658 -79.9333 280° West 290 334 5,900  Level Atlanta Center
08:54AM 35.3158 -79.9454 282° West  Level FlightAware Approximate
08:54AM 35.3758 -80.0500 276° West 284 327 5,900  Level Atlanta Center
08:55AM 35.3167 -80.0169 270° West  Level FlightAware Approximate
08:55AM 35.3897 -80.1536 279° West 284 327 5,900  Level Atlanta Center
08:56AM 35.3246 -80.0876 280° West  Level FlightAware Approximate
08:56AM 35.4011 -80.2475 278° West 285 328 5,900  Level Atlanta Center
08:57AM 35.3349 -80.1581 280° West  Level FlightAware Approximate
08:57AM 35.4144 -80.3489 279° West 283 326 6,000  Level Atlanta Center
08:58AM 35.3451 -80.2286 280° West  Level FlightAware Approximate
08:58AM 35.4253 -80.4325 279° West 283 326 5,400  Level Atlanta Center
08:59AM 35.4408 -80.5336 281° West 283 326 3,400 -1,260 Descending Atlanta Center
09:00AM 35.4556 -80.6147 283° West 285 328 3,000 -240 Descending Atlanta Center
09:01AM 35.4686 -80.7083 280° West 265 305 3,000  Level Atlanta Center
09:02AM 35.4753 -80.8025 275° West 260 299 3,000 -60 Level Atlanta Center
09:03AM 35.4794 -80.8814 274° West 246 283 2,900  Descending Atlanta Center
09:04AM 35.4856 -80.9578 276° West 215 247 3,000  Climbing Atlanta Center
09:05AM 35.5039 -81.0258 288° West 210 242 3,000  Level Atlanta Center